Time;durP1;ratioP1;P1;durP2;ratioP2;P2;SDS_P1;SDS_P2;PMS_P1;PMS_P2;Temp;Humidity;BMP_temperature;BMP_pressure;BME280_temperature;BME280_humidity;BME280_pressure;Samples;Min_cycle;Max_cycle;Signal;HPM_P1;HPM_P2
2023/09/29 00:00:17;;;;;;;12.38;6.25;;;;;;;11.08;100.00;97025.47;4982927;28;20042;-69
2023/09/29 00:02:44;;;;;;;11.27;5.30;;;;;;;11.16;100.00;97031.88;4976790;28;20046;-68
2023/09/29 00:05:15;;;;;;;10.13;5.80;;;;;;;11.16;100.00;97015.44;4975281;28;20039;-68
2023/09/29 00:07:40;;;;;;;9.05;5.80;;;;;;;11.20;100.00;97028.06;4979539;28;20051;-69
2023/09/29 00:10:09;;;;;;;11.60;5.68;;;;;;;11.16;100.00;97026.38;4972506;28;20071;-68
2023/09/29 00:12:37;;;;;;;12.80;6.28;;;;;;;11.15;100.00;97038.53;4992852;28;20478;-68
2023/09/29 00:15:04;;;;;;;9.88;5.78;;;;;;;11.12;100.00;97033.75;4965831;28;20043;-67
2023/09/29 00:17:31;;;;;;;9.80;5.93;;;;;;;11.06;100.00;97034.03;4972371;28;20034;-68
2023/09/29 00:19:57;;;;;;;13.40;5.43;;;;;;;11.01;100.00;97030.81;4965349;28;20046;-68
2023/09/29 00:22:22;;;;;;;10.90;5.47;;;;;;;11.01;100.00;97028.84;4966746;28;20189;-68
2023/09/29 00:24:48;;;;;;;16.02;5.45;;;;;;;11.01;100.00;97033.53;4964995;28;20390;-69
2023/09/29 00:27:13;;;;;;;8.50;4.65;;;;;;;10.99;100.00;97031.16;4964464;28;20395;-69
2023/09/29 00:29:39;;;;;;;8.73;5.72;;;;;;;10.96;100.00;97031.88;4966278;28;20133;-68
2023/09/29 00:32:05;;;;;;;10.18;5.68;;;;;;;10.88;100.00;97022.72;4961681;28;20047;-68
2023/09/29 00:34:31;;;;;;;9.90;5.45;;;;;;;10.85;100.00;97037.13;4970709;28;20081;-69
2023/09/29 00:36:56;;;;;;;8.65;5.40;;;;;;;10.83;100.00;97027.72;4981778;28;20038;-68
2023/09/29 00:39:22;;;;;;;12.70;4.97;;;;;;;10.81;100.00;97038.25;4978066;28;20058;-69
2023/09/29 00:41:49;;;;;;;7.28;4.65;;;;;;;10.70;100.00;97038.00;4972362;28;20401;-69
2023/09/29 00:44:15;;;;;;;5.53;4.20;;;;;;;10.70;100.00;97044.28;4958169;28;20547;-68
2023/09/29 00:46:40;;;;;;;8.68;5.00;;;;;;;10.68;100.00;97038.38;4971895;28;20047;-68
2023/09/29 00:49:06;;;;;;;7.50;4.90;;;;;;;10.65;100.00;97036.34;4973688;28;20656;-68
2023/09/29 00:51:34;;;;;;;9.75;5.20;;;;;;;10.66;100.00;97037.13;4965222;28;20034;-68
2023/09/29 00:54:05;;;;;;;10.05;5.38;;;;;;;10.64;100.00;97036.69;4972503;28;20113;-69
2023/09/29 00:56:30;;;;;;;11.00;5.68;;;;;;;10.66;100.00;97034.38;4966897;28;20051;-68
2023/09/29 00:58:56;;;;;;;9.43;5.70;;;;;;;10.66;100.00;97037.94;4971226;28;20039;-69
2023/09/29 01:01:23;;;;;;;11.25;6.15;;;;;;;10.74;100.00;97044.34;4962876;28;20100;-68
2023/09/29 01:03:50;;;;;;;9.57;5.63;;;;;;;10.78;100.00;97038.94;4966213;28;20045;-68
2023/09/29 01:06:16;;;;;;;9.75;5.55;;;;;;;10.78;100.00;97039.72;4967082;28;20070;-67
2023/09/29 01:08:44;;;;;;;9.43;5.32;;;;;;;10.71;100.00;97039.59;4967852;28;20035;-67
2023/09/29 01:11:09;;;;;;;10.73;4.60;;;;;;;10.63;100.00;97038.66;4965139;28;20042;-67
2023/09/29 01:13:40;;;;;;;8.00;5.35;;;;;;;10.58;100.00;97030.72;4977832;28;20045;-69
2023/09/29 01:16:06;;;;;;;8.18;5.10;;;;;;;10.52;100.00;97032.94;4961232;28;20046;-66
2023/09/29 01:18:33;;;;;;;9.95;5.20;;;;;;;10.48;100.00;97034.81;4982672;28;20405;-68
2023/09/29 01:20:59;;;;;;;12.20;4.95;;;;;;;10.40;100.00;97024.06;4965583;28;20043;-69
2023/09/29 01:23:29;;;;;;;13.68;5.65;;;;;;;10.41;100.00;97029.19;4961000;28;20054;-69
2023/09/29 01:25:55;;;;;;;13.93;5.07;;;;;;;10.41;100.00;97026.44;4966950;28;20034;-68
2023/09/29 01:28:20;;;;;;;10.50;5.45;;;;;;;10.24;100.00;97030.31;4959357;28;20054;-69
2023/09/29 01:30:47;;;;;;;9.05;5.32;;;;;;;10.00;100.00;97036.00;4964037;28;20047;-68
2023/09/29 01:33:13;;;;;;;13.05;5.88;;;;;;;9.73;100.00;97030.28;4973763;28;20046;-68
2023/09/29 01:35:39;;;;;;;8.20;5.90;;;;;;;9.63;100.00;97030.81;4964395;28;20031;-68
2023/09/29 01:38:05;;;;;;;10.98;6.43;;;;;;;9.53;100.00;97032.91;4960640;28;20050;-69
2023/09/29 01:40:30;;;;;;;7.97;5.18;;;;;;;9.56;100.00;97028.66;4977862;28;20042;-69
2023/09/29 01:42:58;;;;;;;8.90;5.30;;;;;;;9.65;100.00;97031.25;4980019;28;20045;-68
2023/09/29 01:45:24;;;;;;;10.85;5.80;;;;;;;9.72;100.00;97034.16;4968654;28;20081;-68
2023/09/29 01:47:50;;;;;;;10.38;5.90;;;;;;;9.88;100.00;97026.72;4985826;28;20334;-68
2023/09/29 01:50:17;;;;;;;10.65;5.78;;;;;;;9.99;100.00;97024.25;4990197;28;20121;-69
2023/09/29 01:52:44;;;;;;;10.25;5.65;;;;;;;10.03;100.00;97032.56;4965114;28;20812;-68
2023/09/29 01:55:19;;;;;;;10.98;6.05;;;;;;;10.05;100.00;97033.00;4958349;28;20379;-69
2023/09/29 01:57:49;;;;;;;13.35;5.63;;;;;;;9.99;100.00;97031.69;4963571;28;20512;-68
2023/09/29 02:00:19;;;;;;;9.68;5.30;;;;;;;9.82;100.00;97028.16;4959956;28;20085;-69
2023/09/29 02:02:48;;;;;;;;;;;;;;;9.86;100.00;97034.50;4972988;28;20042;-69
2023/09/29 02:05:16;;;;;;;8.13;4.70;;;;;;;9.84;100.00;97031.34;4974115;28;19937;-69
2023/09/29 02:07:45;;;;;;;7.95;4.78;;;;;;;9.86;100.00;97033.72;4993995;28;20043;-68
2023/09/29 02:10:11;;;;;;;7.82;4.43;;;;;;;9.59;100.00;97041.66;4977119;28;20133;-70
2023/09/29 02:12:46;;;;;;;6.75;4.50;;;;;;;9.42;100.00;97036.50;4975472;28;20457;-69
2023/09/29 02:15:18;;;;;;;9.02;4.90;;;;;;;9.47;100.00;97030.78;4960026;28;20057;-70
2023/09/29 02:17:44;;;;;;;7.85;5.07;;;;;;;9.52;100.00;97038.72;4978699;28;20045;-69
2023/09/29 02:20:20;;;;;;;10.80;5.53;;;;;;;9.45;100.00;97033.88;4963068;28;20532;-69
2023/09/29 02:22:45;;;;;;;10.68;5.60;;;;;;;9.28;100.00;97036.94;4971451;28;20047;-69
2023/09/29 02:25:14;;;;;;;13.52;6.07;;;;;;;9.12;100.00;97031.44;4961164;28;20049;-68
2023/09/29 02:27:40;;;;;;;11.30;5.88;;;;;;;9.04;100.00;97040.56;4971417;28;20038;-69
2023/09/29 02:30:09;;;;;;;9.90;5.13;;;;;;;9.06;100.00;97036.38;4958367;28;20085;-69
2023/09/29 02:32:39;;;;;;;8.30;5.10;;;;;;;9.09;100.00;97034.84;4963996;28;20436;-69
2023/09/29 02:35:05;;;;;;;8.82;5.68;;;;;;;9.23;100.00;97037.97;4960206;28;20055;-67
2023/09/29 02:37:30;;;;;;;8.73;5.63;;;;;;;9.36;100.00;97044.16;4962092;28;20047;-69
2023/09/29 02:39:56;;;;;;;12.60;6.28;;;;;;;9.49;100.00;97051.19;4970211;28;20137;-68
2023/09/29 02:42:22;;;;;;;9.90;5.55;;;;;;;9.56;100.00;97045.91;4965784;28;21303;-69
2023/09/29 02:44:47;;;;;;;9.38;5.68;;;;;;;9.56;100.00;97051.38;4962122;28;20042;-69
2023/09/29 02:47:14;;;;;;;9.85;5.78;;;;;;;9.63;100.00;97044.47;4958082;28;20513;-69
2023/09/29 02:49:40;;;;;;;8.00;5.82;;;;;;;9.74;100.00;97045.53;4962399;28;20061;-69
2023/09/29 02:52:06;;;;;;;8.90;5.78;;;;;;;9.75;100.00;97052.59;4970847;28;20042;-69
2023/09/29 02:54:32;;;;;;;8.70;4.88;;;;;;;9.67;100.00;97053.56;4965461;28;20047;-68
2023/09/29 02:56:58;;;;;;;8.15;5.55;;;;;;;9.62;100.00;97062.84;4968116;28;20057;-69
2023/09/29 02:59:24;;;;;;;6.65;4.80;;;;;;;9.59;100.00;97065.47;4958813;28;20807;-69
2023/09/29 03:01:52;;;;;;;8.85;5.10;;;;;;;9.57;100.00;97060.34;4962716;28;20031;-69
2023/09/29 03:04:18;;;;;;;10.35;4.95;;;;;;;9.60;100.00;97061.56;4966148;28;20042;-69
2023/09/29 03:06:43;;;;;;;10.23;5.05;;;;;;;9.62;100.00;97062.03;4972449;28;20042;-69
2023/09/29 03:09:13;;;;;;;8.85;4.85;;;;;;;9.64;100.00;97063.28;4981468;28;20141;-68
2023/09/29 03:11:43;;;;;;;8.48;5.65;;;;;;;9.64;100.00;97070.69;4986227;28;20043;-68
2023/09/29 03:14:09;;;;;;;9.63;5.03;;;;;;;9.64;100.00;97066.00;4980287;28;20130;-69
2023/09/29 03:16:37;;;;;;;9.57;4.57;;;;;;;9.59;100.00;97066.25;4985697;28;20038;-69
2023/09/29 03:19:03;;;;;;;8.43;5.20;;;;;;;9.52;100.00;97066.06;4975539;28;20082;-67
2023/09/29 03:21:28;;;;;;;9.48;5.30;;;;;;;9.47;100.00;97072.59;4960525;28;20061;-68
2023/09/29 03:23:54;;;;;;;7.57;5.28;;;;;;;9.41;100.00;97065.78;4962102;28;20110;-68
2023/09/29 03:26:22;;;;;;;11.13;5.20;;;;;;;9.42;100.00;97063.84;4963511;28;20042;-67
2023/09/29 03:28:49;;;;;;;9.35;5.50;;;;;;;9.45;100.00;97071.34;4962804;28;20096;-68
2023/09/29 03:31:16;;;;;;;9.82;5.50;;;;;;;9.50;100.00;97073.84;4968745;28;20053;-68
2023/09/29 03:33:42;;;;;;;11.32;5.10;;;;;;;9.54;100.00;97078.28;4961706;28;20047;-68
2023/09/29 03:36:08;;;;;;;9.75;5.15;;;;;;;9.58;100.00;97075.63;4970201;28;20050;-68
2023/09/29 03:38:33;;;;;;;10.07;5.88;;;;;;;9.57;100.00;97079.50;4963000;28;20047;-68
2023/09/29 03:40:58;;;;;;;10.50;5.82;;;;;;;9.60;100.00;97070.59;4975850;28;20087;-67
2023/09/29 03:43:24;;;;;;;10.20;5.50;;;;;;;9.59;100.00;97073.69;4968438;28;20553;-69
2023/09/29 03:45:50;;;;;;;10.70;5.57;;;;;;;9.41;100.00;97060.31;4962816;28;20039;-67
2023/09/29 03:48:16;;;;;;;9.15;5.65;;;;;;;8.70;100.00;97056.41;4958161;28;20050;-69
2023/09/29 03:50:43;;;;;;;9.20;6.63;;;;;;;8.31;100.00;97064.97;4962332;28;20042;-69
2023/09/29 03:53:08;;;;;;;10.07;6.00;;;;;;;8.41;100.00;97056.31;4971403;28;20625;-69
2023/09/29 03:55:34;;;;;;;16.33;6.70;;;;;;;8.43;100.00;97061.47;4973676;28;20167;-70
2023/09/29 03:58:00;;;;;;;10.23;6.45;;;;;;;8.45;100.00;97061.13;4966335;28;20209;-71
2023/09/29 04:00:26;;;;;;;9.30;6.40;;;;;;;8.57;100.00;97069.28;4961387;28;20148;-68
2023/09/29 04:02:52;;;;;;;11.00;7.43;;;;;;;8.77;100.00;97067.53;4949734;28;20513;-68
2023/09/29 04:05:19;;;;;;;11.05;6.70;;;;;;;8.93;100.00;97070.31;4960870;28;20506;-67
2023/09/29 04:07:44;;;;;;;10.75;6.47;;;;;;;8.98;100.00;97070.06;4965377;28;20054;-69
2023/09/29 04:10:12;;;;;;;8.73;6.25;;;;;;;8.98;100.00;97075.53;4976139;28;20042;-69
2023/09/29 04:12:49;;;;;;;10.20;6.35;;;;;;;8.92;100.00;97072.25;4973625;28;20615;-69
2023/09/29 04:15:15;;;;;;;11.30;5.68;;;;;;;8.81;100.00;97068.44;4989739;28;20050;-69
2023/09/29 04:17:41;;;;;;;15.27;5.97;;;;;;;8.66;100.00;97077.34;4977900;28;20082;-69
2023/09/29 04:20:08;;;;;;;12.63;6.47;;;;;;;8.57;100.00;97080.19;4969028;28;20509;-69
2023/09/29 04:22:34;;;;;;;12.68;5.70;;;;;;;8.58;100.00;97081.78;4973920;28;20109;-70
2023/09/29 04:25:00;;;;;;;12.30;5.90;;;;;;;8.57;100.00;97080.19;4965991;28;20133;-69
2023/09/29 04:27:25;;;;;;;8.90;5.47;;;;;;;8.64;100.00;97079.63;4973007;28;20038;-69
2023/09/29 04:29:51;;;;;;;12.90;5.47;;;;;;;8.74;100.00;97082.66;4992515;28;20061;-69
2023/09/29 04:32:17;;;;;;;8.75;5.43;;;;;;;8.84;100.00;97080.59;4988474;28;20050;-68
2023/09/29 04:34:43;;;;;;;9.35;4.80;;;;;;;8.89;100.00;97077.63;4985435;28;20105;-69
2023/09/29 04:37:09;;;;;;;7.22;4.53;;;;;;;8.90;100.00;97081.97;4967176;28;20387;-69
2023/09/29 04:39:34;;;;;;;8.88;4.90;;;;;;;8.91;100.00;97078.88;4975182;28;20045;-70
2023/09/29 04:42:00;;;;;;;10.00;5.28;;;;;;;8.94;100.00;97083.63;5000133;28;20073;-70
2023/09/29 04:44:25;;;;;;;8.20;4.68;;;;;;;8.96;100.00;97078.63;4964450;28;20058;-70
2023/09/29 04:46:50;;;;;;;8.02;4.43;;;;;;;8.92;100.00;97074.22;4965077;28;20157;-69
2023/09/29 04:49:16;;;;;;;11.02;5.65;;;;;;;8.95;100.00;97073.53;4975032;28;20495;-70
2023/09/29 04:51:43;;;;;;;8.15;4.68;;;;;;;8.97;100.00;97065.78;4967998;28;20839;-70
2023/09/29 04:54:10;;;;;;;7.57;4.68;;;;;;;9.01;100.00;97077.59;4961281;28;20046;-69
2023/09/29 04:56:36;;;;;;;61.70;28.85;;;;;;;8.97;100.00;97074.75;4972745;28;20043;-70
2023/09/29 04:59:01;;;;;;;10.77;5.32;;;;;;;8.99;100.00;97083.41;4964975;28;20050;-70
2023/09/29 05:01:27;;;;;;;7.97;5.10;;;;;;;9.00;100.00;97075.97;4961521;28;20147;-71
2023/09/29 05:03:53;;;;;;;8.70;5.45;;;;;;;9.01;100.00;97077.59;4969866;28;20124;-69
2023/09/29 05:06:18;;;;;;;11.43;5.45;;;;;;;8.96;100.00;97086.03;4964579;28;20063;-69
2023/09/29 05:08:44;;;;;;;13.73;5.60;;;;;;;8.98;100.00;97078.28;4973857;28;20054;-69
2023/09/29 05:11:24;;;;;;;9.07;5.78;;;;;;;9.03;100.00;97083.50;4970449;28;20034;-69
2023/09/29 05:13:51;;;;;;;10.07;5.88;;;;;;;9.06;100.00;97085.53;4984858;28;20035;-69
2023/09/29 05:16:17;;;;;;;8.00;5.10;;;;;;;9.05;100.00;97080.41;4970027;28;20070;-69
2023/09/29 05:18:44;;;;;;;11.77;5.43;;;;;;;8.92;100.00;97085.91;4975548;28;20038;-69
2023/09/29 05:21:10;;;;;;;12.52;5.90;;;;;;;8.92;100.00;97094.13;4960520;28;20087;-69
2023/09/29 05:23:39;;;;;;;7.93;4.93;;;;;;;8.90;100.00;97106.53;4980448;28;20039;-70
2023/09/29 05:26:07;;;;;;;9.57;5.80;;;;;;;8.99;100.00;97118.13;4971580;28;20104;-66
2023/09/29 05:28:32;;;;;;;8.60;4.93;;;;;;;9.03;100.00;97112.75;4965092;28;20503;-69
2023/09/29 05:30:59;;;;;;;8.55;5.88;;;;;;;8.95;100.00;97120.75;4964474;28;20046;-69
2023/09/29 05:33:24;;;;;;;11.57;5.80;;;;;;;9.15;100.00;97113.50;4959304;28;20527;-67
2023/09/29 05:35:50;;;;;;;10.13;6.05;;;;;;;9.51;100.00;97130.13;4970069;28;20089;-67
2023/09/29 05:38:16;;;;;;;9.60;5.70;;;;;;;9.80;100.00;97125.41;4960817;28;20034;-67
2023/09/29 05:40:43;;;;;;;11.48;5.80;;;;;;;9.86;100.00;97124.78;4979343;28;20145;-67
2023/09/29 05:43:10;;;;;;;11.80;5.15;;;;;;;9.87;100.00;97131.88;4975198;28;20042;-68
2023/09/29 05:45:42;;;;;;;13.63;6.18;;;;;;;9.95;100.00;97116.41;4964929;28;20109;-68
2023/09/29 05:48:07;;;;;;;13.57;5.97;;;;;;;9.25;100.00;97128.63;4963598;28;20056;-68
2023/09/29 05:50:33;;;;;;;11.88;6.90;;;;;;;9.07;100.00;97143.72;4974191;28;20039;-68
2023/09/29 05:52:59;;;;;;;15.90;6.50;;;;;;;9.17;100.00;97132.31;4964118;28;20125;-68
2023/09/29 05:55:24;;;;;;;11.95;5.97;;;;;;;9.53;100.00;97136.03;4975289;28;20046;-70
2023/09/29 05:57:50;;;;;;;12.18;6.28;;;;;;;9.88;100.00;97127.19;4961880;28;20043;-66
2023/09/29 06:00:19;;;;;;;11.25;5.97;;;;;;;9.90;100.00;97133.09;4960805;28;20125;-68
2023/09/29 06:02:46;;;;;;;8.43;5.60;;;;;;;10.67;100.00;97138.13;4980252;28;20398;-67
2023/09/29 06:05:12;;;;;;;16.20;6.28;;;;;;;11.62;100.00;97142.47;4959681;28;20615;-67
2023/09/29 06:07:38;;;;;;;8.70;5.38;;;;;;;12.09;100.00;97154.34;4989155;28;20034;-68
2023/09/29 06:10:13;;;;;;;12.43;5.03;;;;;;;12.31;100.00;97157.44;4962723;28;20074;-67
2023/09/29 06:12:39;;;;;;;9.25;4.93;;;;;;;12.19;100.00;97155.66;4988772;28;20079;-67
2023/09/29 06:15:06;;;;;;;11.70;4.57;;;;;;;12.34;100.00;97171.25;4973302;28;20046;-67
2023/09/29 06:17:31;;;;;;;11.95;5.20;;;;;;;12.58;100.00;97167.31;4975612;28;20043;-69
2023/09/29 06:19:57;;;;;;;10.65;5.15;;;;;;;12.66;100.00;97170.16;4967046;28;20097;-66
2023/09/29 06:22:24;;;;;;;9.18;5.03;;;;;;;12.60;100.00;97176.00;4960408;28;20856;-68
2023/09/29 06:24:50;;;;;;;8.70;4.28;;;;;;;12.48;100.00;97178.13;4979215;28;20069;-67
2023/09/29 06:27:15;;;;;;;11.68;5.13;;;;;;;12.54;100.00;97182.16;4981864;28;20042;-69
2023/09/29 06:29:46;;;;;;;8.43;4.75;;;;;;;12.67;100.00;97191.78;4969029;28;20047;-68
2023/09/29 06:32:12;;;;;;;12.98;5.28;;;;;;;12.87;100.00;97191.72;4961402;28;20038;-67
2023/09/29 06:34:38;;;;;;;10.23;5.40;;;;;;;12.89;100.00;97198.44;4964847;28;20413;-68
2023/09/29 06:37:03;;;;;;;10.02;5.05;;;;;;;13.00;100.00;97198.59;4958647;28;20086;-67
2023/09/29 06:39:29;;;;;;;10.05;5.20;;;;;;;13.26;100.00;97205.25;4966838;28;20054;-69
2023/09/29 06:41:55;;;;;;;11.63;5.50;;;;;;;13.65;100.00;97200.28;4982374;28;20547;-68
2023/09/29 06:44:20;;;;;;;9.88;5.35;;;;;;;13.30;100.00;97204.09;4986915;28;20042;-69
2023/09/29 06:46:46;;;;;;;10.52;5.88;;;;;;;12.13;100.00;97185.38;4965205;28;20406;-69
2023/09/29 06:49:17;;;;;;;13.63;6.18;;;;;;;11.37;100.00;97188.59;4969699;28;20173;-69
2023/09/29 06:51:51;;;;;;;;;;;;;;;11.35;100.00;97190.13;4954734;28;20102;-68
2023/09/29 06:54:17;;;;;;;16.13;7.20;;;;;;;11.17;100.00;97196.00;4958579;28;20195;-67
2023/09/29 06:56:42;;;;;;;14.35;7.82;;;;;;;10.98;100.00;97198.69;4978802;28;20076;-68
2023/09/29 06:59:08;;;;;;;13.07;7.60;;;;;;;11.02;100.00;97191.34;4959278;28;20066;-68
2023/09/29 07:01:34;;;;;;;13.88;8.35;;;;;;;11.04;100.00;97200.81;4962604;28;20050;-69
2023/09/29 07:03:59;;;;;;;13.93;9.50;;;;;;;11.02;100.00;97202.31;4964547;28;20513;-67
2023/09/29 07:06:25;;;;;;;22.13;11.38;;;;;;;11.04;100.00;97195.34;4964825;28;20112;-68
2023/09/29 07:08:52;;;;;;;29.48;13.73;;;;;;;11.27;100.00;97200.94;4968945;28;20050;-67
2023/09/29 07:11:17;;;;;;;23.02;12.00;;;;;;;11.52;100.00;97192.41;4970618;28;20482;-68
2023/09/29 07:13:43;;;;;;;26.65;12.65;;;;;;;11.81;100.00;97195.75;4965399;28;20053;-67
2023/09/29 07:16:08;;;;;;;61.03;15.95;;;;;;;11.73;100.00;97194.81;4975592;28;20042;-67
2023/09/29 07:18:34;;;;;;;57.40;15.90;;;;;;;11.94;100.00;97197.22;4966365;28;20398;-68
2023/09/29 07:20:59;;;;;;;51.10;16.40;;;;;;;12.08;100.00;97204.13;4963128;28;20114;-68
2023/09/29 07:23:24;;;;;;;26.95;15.38;;;;;;;12.51;100.00;97207.63;4975661;28;20046;-67
2023/09/29 07:25:52;;;;;;;82.28;18.27;;;;;;;12.60;100.00;97206.22;4987554;28;20393;-67
2023/09/29 07:28:17;;;;;;;59.70;17.88;;;;;;;12.91;100.00;97200.78;4972991;28;20042;-68
2023/09/29 07:30:44;;;;;;;51.03;18.85;;;;;;;13.12;100.00;97195.59;4975037;28;20066;-67
2023/09/29 07:33:10;;;;;;;42.50;20.05;;;;;;;13.31;100.00;97202.19;4981435;28;20049;-67
2023/09/29 07:35:36;;;;;;;101.35;21.25;;;;;;;13.47;100.00;97211.06;4994761;28;20046;-67
2023/09/29 07:38:02;;;;;;;120.38;24.35;;;;;;;13.69;100.00;97209.38;4975376;28;20097;-67
2023/09/29 07:40:28;;;;;;;101.78;23.33;;;;;;;14.06;100.00;97202.31;4973774;28;20103;-66
2023/09/29 07:42:53;;;;;;;50.90;23.52;;;;;;;14.27;100.00;97208.03;4984639;28;20113;-69
2023/09/29 07:45:22;;;;;;;81.53;24.58;;;;;;;14.21;100.00;97203.25;4967775;28;20047;-68
2023/09/29 07:47:47;;;;;;;98.60;27.63;;;;;;;14.20;100.00;97213.47;4966667;28;20042;-68
2023/09/29 07:50:13;;;;;;;39.63;24.10;;;;;;;14.69;100.00;97217.91;4962148;28;20043;-69
2023/09/29 07:52:39;;;;;;;51.17;23.02;;;;;;;14.99;100.00;97210.63;4966392;28;20043;-68
2023/09/29 07:55:09;;;;;;;145.93;21.70;;;;;;;14.90;100.00;97216.47;4959880;28;20133;-67
2023/09/29 07:57:35;;;;;;;51.88;22.38;;;;;;;14.81;100.00;97218.78;4980714;28;20505;-69
2023/09/29 08:00:01;;;;;;;30.10;21.40;;;;;;;14.99;100.00;97221.69;4966043;28;20190;-69
2023/09/29 08:02:27;;;;;;;39.13;21.10;;;;;;;14.98;100.00;97222.84;4961946;28;20050;-69
2023/09/29 08:04:52;;;;;;;49.67;21.55;;;;;;;15.00;100.00;97223.25;4966798;28;20205;-67
2023/09/29 08:07:19;;;;;;;51.75;20.42;;;;;;;14.46;100.00;97220.81;4960848;28;20035;-67
2023/09/29 08:09:45;;;;;;;50.28;21.67;;;;;;;14.83;100.00;97224.69;4967683;28;20066;-68
2023/09/29 08:12:10;;;;;;;34.78;20.73;;;;;;;15.78;100.00;97234.00;4968665;28;20039;-67
2023/09/29 08:14:35;;;;;;;32.10;18.45;;;;;;;16.11;100.00;97231.34;4982262;28;20189;-68
2023/09/29 08:17:07;;;;;;;24.70;17.73;;;;;;;17.10;100.00;97229.09;4994781;28;20054;-68
2023/09/29 08:19:34;;;;;;;22.35;15.15;;;;;;;18.43;100.00;97237.75;4958694;28;20046;-67
2023/09/29 08:21:59;;;;;;;18.20;12.95;;;;;;;19.38;100.00;97238.63;4973894;28;20043;-69
2023/09/29 08:24:25;;;;;;;16.90;11.38;;;;;;;19.96;100.00;97236.03;4960252;28;20378;-66
2023/09/29 08:26:50;;;;;;;21.15;11.38;;;;;;;20.51;100.00;97248.00;4964562;28;20062;-68
2023/09/29 08:29:16;;;;;;;16.08;10.73;;;;;;;20.89;100.00;97253.47;4961305;28;20061;-67
2023/09/29 08:31:45;;;;;;;15.48;10.60;;;;;;;20.75;100.00;97252.47;4965455;28;20035;-68
2023/09/29 08:34:11;;;;;;;16.15;10.73;;;;;;;20.06;100.00;97251.81;4943419;28;20505;-68
2023/09/29 08:36:36;;;;;;;20.63;11.30;;;;;;;20.59;100.00;97250.28;4964983;28;20043;-68
2023/09/29 08:39:02;;;;;;;19.15;10.07;;;;;;;21.61;97.25;97250.25;4973630;28;20366;-67
2023/09/29 08:41:29;;;;;;;16.90;10.75;;;;;;;22.39;91.84;97249.91;4971445;28;20046;-68
2023/09/29 08:43:55;;;;;;;12.95;9.32;;;;;;;24.12;82.36;97257.56;4980799;28;20073;-69
2023/09/29 08:46:20;;;;;;;13.05;8.82;;;;;;;25.60;68.74;97264.19;4975697;28;20034;-69
2023/09/29 08:48:48;;;;;;;13.75;9.70;;;;;;;26.50;62.77;97267.34;4967365;28;20068;-68
2023/09/29 08:51:15;;;;;;;13.40;9.38;;;;;;;26.62;59.24;97280.56;4961250;28;20496;-68
2023/09/29 08:53:44;;;;;;;12.40;8.48;;;;;;;25.07;65.93;97268.31;4965685;28;20545;-68
2023/09/29 08:56:13;;;;;;;13.88;9.60;;;;;;;24.72;66.00;97264.63;4959622;28;20065;-68
2023/09/29 08:58:39;;;;;;;12.75;9.05;;;;;;;25.44;64.37;97270.75;4965514;28;20164;-68
2023/09/29 09:01:05;;;;;;;13.13;9.77;;;;;;;25.22;64.16;97268.63;4965503;28;20176;-66
2023/09/29 09:03:31;;;;;;;11.40;7.60;;;;;;;26.39;60.38;97267.00;4968091;28;20042;-68
2023/09/29 09:05:56;;;;;;;12.65;7.97;;;;;;;27.52;54.24;97274.16;4976588;28;20057;-67
2023/09/29 09:08:24;;;;;;;20.15;8.35;;;;;;;27.40;54.78;97278.66;4963898;28;20077;-68
2023/09/29 09:10:57;;;;;;;13.25;8.75;;;;;;;25.81;55.84;97271.09;4967742;28;20182;-68
2023/09/29 09:13:22;;;;;;;17.63;9.25;;;;;;;24.26;66.32;97261.97;4979530;28;20046;-69
2023/09/29 09:15:58;;;;;;;11.52;7.40;;;;;;;23.92;69.73;97268.16;4983843;28;20050;-68
2023/09/29 09:18:27;;;;;;;11.43;7.90;;;;;;;24.81;65.84;97264.72;4980746;28;20267;-69
2023/09/29 09:20:57;;;;;;;10.35;7.15;;;;;;;25.49;62.21;97265.34;4974432;28;20034;-69
2023/09/29 09:23:22;;;;;;;10.60;7.85;;;;;;;25.61;59.10;97265.78;4963601;28;20137;-67
2023/09/29 09:25:48;;;;;;;12.68;7.80;;;;;;;25.61;59.27;97260.94;4994564;28;20052;-69
2023/09/29 09:28:19;;;;;;;13.43;7.80;;;;;;;26.40;57.22;97263.72;4975077;28;20043;-66
2023/09/29 09:30:46;;;;;;;14.18;9.32;;;;;;;27.43;53.95;97277.75;4988981;28;20050;-67
2023/09/29 09:33:21;;;;;;;13.80;8.38;;;;;;;26.88;52.02;97281.16;4979791;28;20539;-66
2023/09/29 09:35:50;;;;;;;11.52;6.82;;;;;;;26.78;51.86;97270.34;4964067;28;20043;-67
2023/09/29 09:38:16;;;;;;;9.48;6.25;;;;;;;26.35;51.99;97266.34;4958897;28;20039;-68
2023/09/29 09:40:43;;;;;;;11.50;6.75;;;;;;;25.92;55.16;97258.22;4965743;28;20043;-68
2023/09/29 09:43:10;;;;;;;13.98;7.05;;;;;;;25.28;56.99;97261.25;4959321;28;20050;-66
2023/09/29 09:45:40;;;;;;;14.27;7.35;;;;;;;25.59;58.62;97248.59;4963747;28;20521;-71
2023/09/29 09:48:07;;;;;;;12.20;7.18;;;;;;;24.71;62.28;97252.66;4969766;28;20049;-68
2023/09/29 09:50:36;;;;;;;10.52;6.82;;;;;;;25.08;61.11;97253.06;4970626;28;20047;-69
2023/09/29 09:53:03;;;;;;;14.15;6.47;;;;;;;25.16;60.31;97248.78;4972674;28;20047;-69
2023/09/29 09:55:39;;;;;;;10.35;6.82;;;;;;;25.23;59.21;97246.97;4959576;28;20043;-69
2023/09/29 09:58:09;;;;;;;10.23;6.28;;;;;;;25.51;57.89;97245.25;4964219;28;20038;-67
2023/09/29 10:00:36;;;;;;;11.20;6.13;;;;;;;25.49;56.71;97233.72;4974134;28;20481;-69
2023/09/29 10:03:04;;;;;;;9.48;6.15;;;;;;;26.02;54.54;97247.09;4963753;28;20047;-66
2023/09/29 10:05:31;;;;;;;11.45;7.13;;;;;;;26.52;52.56;97250.81;4962913;28;20049;-69
2023/09/29 10:08:04;;;;;;;7.75;5.28;;;;;;;26.80;50.30;97251.75;4963261;28;20042;-69
2023/09/29 10:10:40;;;;;;;11.38;5.88;;;;;;;27.40;46.57;97256.16;4964481;28;20049;-69
2023/09/29 10:13:11;;;;;;;10.65;5.35;;;;;;;27.39;46.39;97254.63;4966271;28;20489;-67
2023/09/29 10:15:37;;;;;;;6.43;4.72;;;;;;;27.99;44.31;97258.09;4962969;28;20054;-68
2023/09/29 10:18:19;;;;;;;12.90;4.95;;;;;;;28.05;43.93;97256.22;4984492;28;20042;-65
2023/09/29 10:20:50;;;;;;;8.48;4.90;;;;;;;28.03;44.49;97250.28;4964045;28;20049;-68
2023/09/29 10:23:16;;;;;;;8.63;4.70;;;;;;;27.72;45.71;97254.00;4962380;28;20043;-68
2023/09/29 10:25:54;;;;;;;10.95;5.70;;;;;;;28.90;42.79;97239.41;4963033;28;20457;-67
2023/09/29 10:28:29;;;;;;;8.85;5.25;;;;;;;28.70;42.46;97234.34;4959823;28;20038;-67
2023/09/29 10:31:15;;;;;;;8.73;5.13;;;;;;;28.35;43.24;97242.41;4963303;28;20053;-68
2023/09/29 10:33:47;;;;;;;9.15;4.70;;;;;;;28.20;43.54;97239.47;4962901;28;20458;-67
2023/09/29 10:36:12;;;;;;;7.80;4.30;;;;;;;28.24;41.28;97240.06;4958875;28;20213;-67
2023/09/29 10:38:40;;;;;;;12.27;5.32;;;;;;;27.77;41.54;97247.00;4963327;28;20146;-67
2023/09/29 10:41:06;;;;;;;7.75;4.45;;;;;;;27.98;41.67;97234.00;4966391;28;20045;-67
2023/09/29 10:43:34;;;;;;;7.93;4.47;;;;;;;28.60;41.34;97230.75;4966312;28;20398;-67
2023/09/29 10:46:06;;;;;;;6.65;4.10;;;;;;;28.27;41.72;97236.31;4962499;28;20035;-67
2023/09/29 10:48:33;;;;;;;6.22;4.07;;;;;;;27.75;43.48;97236.19;4964882;28;20045;-67
2023/09/29 10:50:58;;;;;;;8.27;4.93;;;;;;;27.44;45.77;97233.50;4986238;28;20048;-69
2023/09/29 10:53:24;;;;;;;12.73;5.85;;;;;;;28.03;44.90;97234.16;4967028;28;20746;-68
2023/09/29 10:55:52;;;;;;;9.93;5.47;;;;;;;27.43;45.68;97227.09;4962664;28;20046;-68
2023/09/29 10:58:19;;;;;;;13.00;4.95;;;;;;;27.66;45.47;97230.56;4957169;28;20043;-69
2023/09/29 11:00:47;;;;;;;8.95;5.13;;;;;;;27.70;45.40;97228.38;4962890;28;20051;-68
2023/09/29 11:03:18;;;;;;;9.20;5.40;;;;;;;27.75;44.85;97229.75;4957706;28;20049;-67
2023/09/29 11:05:53;;;;;;;8.00;4.97;;;;;;;27.87;44.25;97231.63;4970784;28;20069;-67
2023/09/29 11:08:20;;;;;;;8.88;4.68;;;;;;;28.00;43.55;97221.03;4968878;28;20397;-67
2023/09/29 11:10:56;;;;;;;9.35;5.05;;;;;;;27.87;44.25;97220.38;4972540;28;20401;-67
2023/09/29 11:13:22;;;;;;;9.73;4.63;;;;;;;27.75;44.21;97212.88;4963854;28;20642;-67
2023/09/29 11:15:49;;;;;;;10.23;5.10;;;;;;;26.77;45.87;97215.38;4973253;28;20050;-67
2023/09/29 11:18:34;;;;;;;10.30;5.22;;;;;;;24.41;53.30;97195.16;4969512;28;20034;-67
2023/09/29 11:21:09;;;;;;;11.00;5.60;;;;;;;25.43;52.67;97188.66;4978311;28;20101;-67
2023/09/29 11:23:45;;;;;;;11.10;5.97;;;;;;;26.55;49.80;97188.13;4963742;28;20038;-66